createdAt,value
2023-05-08T00:01:20.486Z,99088.72
2023-05-08T00:03:47.107Z,99084.38
2023-05-08T00:06:13.807Z,99084.38
2023-05-08T00:08:42.008Z,99093.09
2023-05-08T00:11:08.677Z,99095.72
2023-05-08T00:13:35.318Z,99096.59
2023-05-08T00:16:01.866Z,99086.16
2023-05-08T00:18:28.571Z,99091.38
2023-05-08T00:20:55.231Z,99087.00
2023-05-08T00:23:22.377Z,99093.09
2023-05-08T00:25:48.993Z,99087.00
2023-05-08T00:28:15.571Z,99087.88
2023-05-08T00:30:42.776Z,99084.38
2023-05-08T00:33:09.784Z,99095.72
2023-05-08T00:35:36.620Z,99091.38
2023-05-08T00:38:03.380Z,99084.41
2023-05-08T00:40:30.025Z,99085.25
2023-05-08T00:42:56.670Z,99087.88
2023-05-08T00:45:23.433Z,99087.00
2023-05-08T00:47:50.767Z,99085.25
2023-05-08T00:50:18.307Z,99088.75
2023-05-08T00:52:46.411Z,99088.72
2023-05-08T00:55:13.107Z,99089.59
2023-05-08T00:57:39.896Z,99094.81
2023-05-08T01:00:07.789Z,99091.34
2023-05-08T01:02:35.958Z,99097.41
2023-05-08T01:05:03.693Z,99092.16
2023-05-08T01:07:30.284Z,99086.03
2023-05-08T01:09:56.922Z,99086.88
2023-05-08T01:12:40.173Z,99088.59
2023-05-08T01:15:17.020Z,99089.47
2023-05-08T01:17:53.505Z,99089.50
2023-05-08T01:20:32.156Z,99093.81
2023-05-08T01:23:14.025Z,99089.47
2023-05-08T01:26:08.524Z,99090.31
2023-05-08T01:29:13.910Z,99096.34
2023-05-08T01:31:59.559Z,99094.59
2023-05-08T01:34:31.225Z,99097.22
2023-05-08T01:37:17.239Z,99102.44
2023-05-08T01:39:55.800Z,99104.16
2023-05-08T01:42:43.120Z,99101.59
2023-05-08T01:45:32.277Z,99098.97
2023-05-08T01:48:06.415Z,99101.59
2023-05-08T01:50:42.544Z,99103.28
2023-05-08T01:53:20.203Z,99100.66
2023-05-08T01:55:50.339Z,99105.81
2023-05-08T01:58:17.303Z,99112.75
2023-05-08T02:00:45.091Z,99111.00
2023-05-08T02:03:14.828Z,99107.47
2023-05-08T02:05:43.082Z,99104.88
2023-05-08T02:08:12.986Z,99115.25
2023-05-08T02:10:40.643Z,99105.66
2023-05-08T02:13:08.925Z,99104.81
2023-05-08T02:15:37.796Z,99113.47
2023-05-08T02:18:07.208Z,99113.41
2023-05-08T02:20:34.420Z,99116.03
2023-05-08T02:23:02.585Z,99117.75
2023-05-08T02:25:31.583Z,99112.53
2023-05-08T02:27:58.850Z,99111.69
2023-05-08T02:30:27.725Z,99112.50
2023-05-08T02:32:59.643Z,99113.34
2023-05-08T02:35:30.402Z,99111.63
2023-05-08T02:37:58.686Z,99111.63
2023-05-08T02:40:29.184Z,99115.03
2023-05-08T02:42:56.172Z,99117.69
2023-05-08T02:45:28.799Z,99117.75
2023-05-08T02:48:14.770Z,99114.25
2023-05-08T02:50:53.631Z,99116.84
2023-05-08T02:53:30.672Z,99115.97
2023-05-08T02:56:10.366Z,99115.97
2023-05-08T02:58:39.933Z,99115.97
2023-05-08T03:01:21.906Z,99115.09
2023-05-08T03:03:59.603Z,99116.78
2023-05-08T03:06:27.486Z,99109.88
2023-05-08T03:08:57.162Z,99110.75
2023-05-08T03:11:29.728Z,99113.31
2023-05-08T03:14:00.811Z,99116.66
2023-05-08T03:16:32.084Z,99112.31
2023-05-08T03:19:02.484Z,99110.56
2023-05-08T03:21:32.004Z,99110.56
2023-05-08T03:24:02.804Z,99114.94
2023-05-08T03:26:29.995Z,99108.88
2023-05-08T03:28:57.181Z,99104.50
2023-05-08T03:31:25.255Z,99107.16
2023-05-08T03:33:54.087Z,99104.56
2023-05-08T03:36:21.621Z,99107.19
2023-05-08T03:38:49.047Z,99106.38
2023-05-08T03:41:15.810Z,99105.53
2023-05-08T03:43:42.647Z,99109.88
2023-05-08T03:46:10.619Z,99114.22
2023-05-08T03:48:38.706Z,99107.22
2023-05-08T03:51:05.864Z,99120.22
2023-05-08T03:53:33.943Z,99110.69
2023-05-08T03:56:01.400Z,99111.63
2023-05-08T03:58:48.789Z,99114.25
2023-05-08T04:01:27.680Z,99116.06
2023-05-08T04:04:12.166Z,99117.81
2023-05-08T04:06:50.773Z,99124.81
2023-05-08T04:09:24.839Z,99120.53
2023-05-08T04:12:20.892Z,99127.59
2023-05-08T04:14:54.210Z,99124.22
2023-05-08T04:17:49.244Z,99120.81
2023-05-08T04:20:20.598Z,99122.56
2023-05-08T04:22:51.360Z,99119.13
2023-05-08T04:25:19.864Z,99129.59
2023-05-08T04:27:48.131Z,99127.03
2023-05-08T04:30:15.253Z,99122.66
2023-05-08T04:32:45.535Z,99129.63
2023-05-08T04:35:14.339Z,99123.56
2023-05-08T04:37:43.646Z,99125.31
2023-05-08T04:40:10.959Z,99127.06
2023-05-08T04:42:39.543Z,99126.19
2023-05-08T04:45:07.109Z,99134.03
2023-05-08T04:47:33.905Z,99127.06
2023-05-08T04:50:02.547Z,99129.72
2023-05-08T04:52:29.769Z,99127.97
2023-05-08T04:54:56.508Z,99130.59
2023-05-08T04:57:23.169Z,99130.56
2023-05-08T04:59:49.988Z,99130.56
2023-05-08T05:02:16.538Z,99142.75
2023-05-08T05:04:43.101Z,99135.78
2023-05-08T05:07:09.709Z,99133.09
2023-05-08T05:09:43.227Z,99136.59
2023-05-08T05:12:09.988Z,99134.78
2023-05-08T05:14:36.605Z,99148.72
2023-05-08T05:17:03.353Z,99136.44
2023-05-08T05:19:29.985Z,99133.75
2023-05-08T05:21:56.865Z,99140.56
2023-05-08T05:24:23.458Z,99137.91
2023-05-08T05:26:50.036Z,99135.31
2023-05-08T05:29:16.620Z,99139.69
2023-05-08T05:31:43.255Z,99141.38
2023-05-08T05:34:09.950Z,99142.31
2023-05-08T05:36:36.808Z,99150.91
2023-05-08T05:39:03.717Z,99143.84
2023-05-08T05:41:30.508Z,99142.00
2023-05-08T05:43:57.199Z,99134.00
2023-05-08T05:46:28.353Z,99144.59
2023-05-08T05:48:54.974Z,99143.72
2023-05-08T05:51:21.570Z,99142.00
2023-05-08T05:53:48.195Z,99142.88
2023-05-08T05:56:14.899Z,99137.56
2023-05-08T05:58:45.087Z,99139.13
2023-05-08T06:01:12.413Z,99143.28
2023-05-08T06:03:39.284Z,99143.31
2023-05-08T06:06:06.122Z,99140.50
2023-05-08T06:08:32.724Z,99139.53
2023-05-08T06:10:59.521Z,99144.63
2023-05-08T06:13:26.158Z,99150.44
2023-05-08T06:15:56.523Z,99147.38
2023-05-08T06:18:23.591Z,99129.59
2023-05-08T06:20:56.576Z,99138.03
2023-05-08T06:23:23.214Z,99139.19
2023-05-08T06:25:50.066Z,99137.88
2023-05-08T06:28:16.629Z,99140.03
2023-05-08T06:30:43.317Z,99130.81
2023-05-08T06:33:09.961Z,99128.81
2023-05-08T06:35:37.558Z,99140.97
2023-05-08T06:38:04.192Z,99142.19
2023-05-08T06:40:30.778Z,99136.41
2023-05-08T06:42:57.442Z,99138.72
2023-05-08T06:45:23.980Z,99138.38
2023-05-08T06:47:50.610Z,99133.63
2023-05-08T06:50:17.208Z,99137.38
2023-05-08T06:52:43.899Z,99129.06
2023-05-08T06:55:10.691Z,99130.44
2023-05-08T06:57:37.305Z,99126.19
2023-05-08T07:00:04.526Z,99133.66
2023-05-08T07:02:31.358Z,99127.72
2023-05-08T07:04:58.092Z,99121.88
2023-05-08T07:07:24.723Z,99121.97
2023-05-08T07:09:51.313Z,99117.72
2023-05-08T07:12:18.017Z,99117.19
2023-05-08T07:14:44.662Z,99122.66
2023-05-08T07:17:11.338Z,99131.31
2023-05-08T07:19:38.634Z,99127.06
2023-05-08T07:22:06.131Z,99123.59
2023-05-08T07:24:33.458Z,99120.75
2023-05-08T07:27:00.138Z,99126.19
2023-05-08T07:29:27.153Z,99121.22
2023-05-08T07:31:54.405Z,99122.31
2023-05-08T07:34:21.021Z,99119.09
2023-05-08T07:36:47.571Z,99115.78
2023-05-08T07:39:14.149Z,99108.63
2023-05-08T07:41:41.229Z,99116.75
2023-05-08T07:44:08.106Z,99120.91
2023-05-08T07:46:34.832Z,99127.56
2023-05-08T07:49:01.659Z,99119.28
2023-05-08T07:51:28.302Z,99121.47
2023-05-08T07:53:55.276Z,99121.91
2023-05-08T07:56:25.170Z,99125.34
2023-05-08T07:58:51.732Z,99123.91
2023-05-08T08:01:18.513Z,99119.97
2023-05-08T08:03:46.032Z,99125.44
2023-05-08T08:06:13.067Z,99117.31
2023-05-08T08:08:40.011Z,99111.97
2023-05-08T08:11:07.217Z,99106.72
2023-05-08T08:13:34.062Z,99101.47
2023-05-08T08:16:01.585Z,99115.53
2023-05-08T08:18:28.750Z,99108.47
2023-05-08T08:20:55.532Z,99107.56
2023-05-08T08:23:22.092Z,99110.06
2023-05-08T08:25:48.781Z,99101.44
2023-05-08T08:28:15.511Z,99104.25
2023-05-08T08:30:42.187Z,99103.13
2023-05-08T08:33:08.862Z,99094.91
2023-05-08T08:35:35.618Z,99100.28
2023-05-08T08:38:02.554Z,99100.88
2023-05-08T08:40:29.297Z,99100.59
2023-05-08T08:42:56.155Z,99102.50
2023-05-08T08:45:22.748Z,99099.19
2023-05-08T08:47:52.379Z,99095.59
2023-05-08T08:50:20.342Z,99099.03
2023-05-08T08:52:46.964Z,99093.53
2023-05-08T08:55:17.440Z,99086.38
2023-05-08T08:58:29.793Z,99092.69
2023-05-08T09:00:57.707Z,99095.38
2023-05-08T09:03:24.531Z,99100.94
2023-05-08T09:05:51.751Z,99100.88
2023-05-08T09:08:19.219Z,99093.59
2023-05-08T09:10:47.260Z,99090.91
2023-05-08T09:13:13.966Z,99097.41
2023-05-08T09:15:41.172Z,99090.22
2023-05-08T09:18:07.831Z,99099.06
2023-05-08T09:20:35.122Z,99101.53
2023-05-08T09:23:04.761Z,99100.81
2023-05-08T09:25:44.830Z,99097.59
2023-05-08T09:28:16.935Z,99101.69
2023-05-08T09:30:57.777Z,99099.28
2023-05-08T09:33:28.662Z,99100.84
2023-05-08T09:35:56.749Z,99114.81
2023-05-08T09:38:43.678Z,99100.41
2023-05-08T09:41:15.798Z,99101.47
2023-05-08T09:43:44.455Z,99108.94
2023-05-08T09:46:23.444Z,99104.06
2023-05-08T09:48:51.577Z,99097.00
2023-05-08T09:51:18.543Z,99103.44
2023-05-08T09:53:45.709Z,99101.88
2023-05-08T09:56:12.633Z,99101.25
2023-05-08T09:58:43.978Z,99101.38
2023-05-08T10:01:33.803Z,99109.97
2023-05-08T10:04:02.256Z,99107.63
2023-05-08T10:06:29.916Z,99104.63
2023-05-08T10:09:07.644Z,99109.34
2023-05-08T10:11:34.791Z,99108.28
2023-05-08T10:14:01.933Z,99096.63
2023-05-08T10:16:30.220Z,99095.50
2023-05-08T10:19:02.475Z,99104.41
2023-05-08T10:21:29.967Z,99090.50
2023-05-08T10:24:03.279Z,99097.75
2023-05-08T10:26:31.975Z,99100.94
2023-05-08T10:29:07.521Z,99098.88
2023-05-08T10:31:44.068Z,99086.13
2023-05-08T10:34:14.965Z,99094.81
2023-05-08T10:36:41.981Z,99083.00
2023-05-08T10:39:11.913Z,99091.47
2023-05-08T10:41:39.349Z,99092.69
2023-05-08T10:44:07.143Z,99089.72
2023-05-08T10:46:49.687Z,99094.28
2023-05-08T10:49:50.026Z,99084.38
2023-05-08T10:52:39.515Z,99086.13
2023-05-08T10:55:22.272Z,99086.00
2023-05-08T10:58:12.473Z,99081.94
2023-05-08T11:01:09.156Z,99085.91
2023-05-08T11:03:47.381Z,99087.66
2023-05-08T11:06:14.932Z,99081.81
2023-05-08T11:08:54.748Z,99083.53
2023-05-08T11:11:34.096Z,99083.47
2023-05-08T11:14:16.515Z,99085.50
2023-05-08T11:16:56.582Z,99083.63
2023-05-08T11:19:25.053Z,99081.28
2023-05-08T11:22:21.809Z,99082.19
2023-05-08T11:24:57.274Z,99086.63
2023-05-08T11:28:01.057Z,99085.25
2023-05-08T11:30:36.536Z,99087.22
2023-05-08T11:33:03.205Z,99084.53
2023-05-08T11:35:49.642Z,99078.13
2023-05-08T11:38:35.046Z,99075.69
2023-05-08T11:41:09.415Z,99075.16
2023-05-08T11:43:39.049Z,99068.00
2023-05-08T11:46:15.237Z,99066.81
2023-05-08T11:48:42.158Z,99064.19
2023-05-08T11:51:09.320Z,99064.66
2023-05-08T11:53:37.251Z,99059.72
2023-05-08T11:56:04.449Z,99067.97
2023-05-08T11:58:31.356Z,99059.13
2023-05-08T12:00:58.200Z,99048.31
2023-05-08T12:03:25.838Z,99042.59
2023-05-08T12:05:56.673Z,99050.47
2023-05-08T12:08:23.816Z,99046.97
2023-05-08T12:10:54.194Z,99045.31
2023-05-08T12:13:22.188Z,99037.50
2023-05-08T12:15:55.458Z,99031.91
2023-05-08T12:18:26.991Z,99038.72
2023-05-08T12:21:01.172Z,99039.97
2023-05-08T12:23:29.661Z,99034.81
2023-05-08T12:26:03.326Z,99047.09
2023-05-08T12:28:34.039Z,99037.88
2023-05-08T12:31:04.196Z,99027.91
2023-05-08T12:33:34.246Z,99032.09
2023-05-08T12:36:01.942Z,99035.34
2023-05-08T12:38:30.181Z,99026.94
2023-05-08T12:41:00.888Z,99021.63
2023-05-08T12:43:35.110Z,99029.69
2023-05-08T12:46:02.929Z,99030.09
2023-05-08T12:48:30.180Z,99025.75
2023-05-08T12:51:03.861Z,99019.25
2023-05-08T12:53:32.898Z,99014.22
2023-05-08T12:56:04.464Z,99015.94
2023-05-08T12:58:35.615Z,99006.09
2023-05-08T13:01:10.278Z,99011.16
2023-05-08T13:03:37.559Z,99003.34
2023-05-08T13:06:04.594Z,99004.91
2023-05-08T13:08:37.046Z,99002.06
2023-05-08T13:11:06.700Z,99002.84
2023-05-08T13:13:35.905Z,99004.59
2023-05-08T13:16:07.298Z,98998.50
2023-05-08T13:18:36.804Z,98997.47
2023-05-08T13:21:07.117Z,98998.16
2023-05-08T13:23:34.092Z,99002.66
2023-05-08T13:26:00.861Z,98993.19
2023-05-08T13:28:27.831Z,98993.97
2023-05-08T13:30:54.561Z,98987.28
2023-05-08T13:33:21.341Z,98973.22
2023-05-08T13:35:48.681Z,98982.72
2023-05-08T13:38:15.556Z,98980.09
2023-05-08T13:40:42.193Z,98973.91
2023-05-08T13:43:08.917Z,98978.00
2023-05-08T13:45:35.817Z,98972.84
2023-05-08T13:48:02.834Z,98977.63
2023-05-08T13:50:29.650Z,98971.34
2023-05-08T13:52:59.495Z,98969.22
2023-05-08T13:55:26.521Z,98970.00
2023-05-08T13:57:57.550Z,98961.91
2023-05-08T14:00:26.025Z,98961.94
2023-05-08T14:02:54.744Z,98961.69
2023-05-08T14:05:21.689Z,98964.78
2023-05-08T14:07:48.673Z,98957.53
2023-05-08T14:10:17.200Z,98960.13
2023-05-08T14:12:44.232Z,98963.91
2023-05-08T14:15:12.076Z,98961.16
2023-05-08T14:17:39.413Z,98959.41
2023-05-08T14:20:06.798Z,98961.88
2023-05-08T14:22:33.641Z,98963.31
2023-05-08T14:25:00.422Z,98964.66
2023-05-08T14:27:29.810Z,98960.81
2023-05-08T14:29:56.754Z,98958.09
2023-05-08T14:32:23.502Z,98949.44
2023-05-08T14:34:50.311Z,98951.41
2023-05-08T14:37:17.900Z,98955.00
2023-05-08T14:39:45.684Z,98953.72
2023-05-08T14:44:42.226Z,98945.09
2023-05-08T14:47:09.767Z,98949.28
2023-05-08T14:52:23.294Z,98951.94
2023-05-08T14:54:53.602Z,98944.69
2023-05-08T14:57:20.910Z,98950.66
2023-05-08T14:59:55.086Z,98948.22
2023-05-08T15:02:23.766Z,98949.44
2023-05-08T15:04:50.607Z,98950.63
2023-05-08T15:07:17.405Z,98950.38
2023-05-08T15:09:44.214Z,98945.81
2023-05-08T15:12:11.211Z,98949.38
2023-05-08T15:14:38.333Z,98954.63
2023-05-08T15:17:05.245Z,98952.84
2023-05-08T15:19:32.079Z,98951.66
2023-05-08T15:21:58.913Z,98948.66
2023-05-08T15:24:25.656Z,98945.47
2023-05-08T15:26:52.522Z,98948.38
2023-05-08T15:29:19.434Z,98937.03
2023-05-08T15:31:46.496Z,98939.56
2023-05-08T15:34:13.315Z,98944.22
2023-05-08T15:36:39.981Z,98937.50
2023-05-08T15:39:07.355Z,98939.91
2023-05-08T15:41:34.400Z,98932.09
2023-05-08T15:44:01.366Z,98936.47
2023-05-08T15:46:28.394Z,98932.63
2023-05-08T15:48:55.131Z,98938.00
2023-05-08T15:51:22.312Z,98939.41
2023-05-08T15:53:52.429Z,98939.72
2023-05-08T15:56:24.516Z,98943.06
2023-05-08T15:58:51.921Z,98936.78
2023-05-08T16:01:19.223Z,98933.53
2023-05-08T16:03:46.063Z,98935.56
2023-05-08T16:06:12.940Z,98930.69
2023-05-08T16:08:39.607Z,98930.38
2023-05-08T16:11:06.485Z,98934.22
2023-05-08T16:13:33.406Z,98940.78
2023-05-08T16:16:05.458Z,98934.50
2023-05-08T16:18:32.377Z,98937.34
2023-05-08T16:20:59.421Z,98930.41
2023-05-08T16:23:26.470Z,98927.16
2023-05-08T16:25:53.399Z,98924.50
2023-05-08T16:28:20.114Z,98933.78
2023-05-08T16:30:46.781Z,98923.09
2023-05-08T16:33:13.399Z,98920.44
2023-05-08T16:35:40.531Z,98918.38
2023-05-08T16:38:07.336Z,98923.84
2023-05-08T16:40:33.969Z,98919.63
2023-05-08T16:43:00.761Z,98917.19
2023-05-08T16:45:28.136Z,98908.78
2023-05-08T16:47:54.986Z,98917.56
2023-05-08T16:50:21.843Z,98904.63
2023-05-08T16:52:48.544Z,98912.63
2023-05-08T16:55:15.527Z,98914.13
2023-05-08T16:57:42.404Z,98911.66
2023-05-08T17:00:09.396Z,98917.13
2023-05-08T17:02:36.226Z,98911.00
2023-05-08T17:05:02.966Z,98911.78
2023-05-08T17:07:29.691Z,98919.22
2023-05-08T17:09:59.335Z,98913.84
2023-05-08T17:12:26.014Z,98920.81
2023-05-08T17:14:52.726Z,98919.69
2023-05-08T17:17:19.434Z,98916.34
2023-05-08T17:19:46.158Z,98932.16
2023-05-08T17:22:13.255Z,98921.50
2023-05-08T17:24:39.931Z,98924.78
2023-05-08T17:27:07.362Z,98931.34
2023-05-08T17:29:35.257Z,98926.47
2023-05-08T17:32:02.060Z,98928.56
2023-05-08T17:34:28.961Z,98925.16
2023-05-08T17:36:55.855Z,98930.22
2023-05-08T17:39:22.923Z,98934.19
2023-05-08T17:41:50.467Z,98941.53
2023-05-08T17:44:18.167Z,98933.03
2023-05-08T17:46:45.641Z,98937.78
2023-05-08T17:49:13.089Z,98934.03
2023-05-08T17:51:41.334Z,98937.94
2023-05-08T17:54:08.405Z,98937.13
2023-05-08T17:56:35.344Z,98942.78
2023-05-08T17:59:02.131Z,98947.03
2023-05-08T18:01:29.654Z,98943.81
2023-05-08T18:03:56.423Z,98946.66
2023-05-08T18:06:23.026Z,98941.53
2023-05-08T18:08:55.674Z,98947.41
2023-05-08T18:11:24.473Z,98944.28
2023-05-08T18:13:52.998Z,98948.06
2023-05-08T18:16:23.416Z,98947.69
2023-05-08T18:18:50.331Z,98944.06
2023-05-08T18:21:17.064Z,98946.25
2023-05-08T18:23:43.877Z,98942.91
2023-05-08T18:26:17.057Z,98951.59
2023-05-08T18:28:44.563Z,98946.78
2023-05-08T18:31:12.143Z,98950.44
2023-05-08T18:33:39.287Z,98952.41
2023-05-08T18:36:07.234Z,98950.94
2023-05-08T18:38:35.181Z,98947.47
2023-05-08T18:41:06.201Z,98949.34
2023-05-08T18:43:33.107Z,98947.16
2023-05-08T18:46:00.679Z,98949.22
2023-05-08T18:48:27.653Z,98945.22
2023-05-08T18:50:58.497Z,98945.59
2023-05-08T18:53:25.364Z,98945.72
2023-05-08T18:55:51.906Z,98951.41
2023-05-08T18:58:18.586Z,98949.97
2023-05-08T19:00:45.296Z,98956.38
2023-05-08T19:03:11.960Z,98951.53
2023-05-08T19:05:38.697Z,98951.81
2023-05-08T19:08:05.839Z,98957.72
2023-05-08T19:10:32.579Z,98957.66
2023-05-08T19:13:02.269Z,98954.41
2023-05-08T19:15:29.332Z,98954.50
2023-05-08T19:17:56.123Z,98956.25
2023-05-08T19:20:22.944Z,98952.06
2023-05-08T19:22:49.863Z,98953.94
2023-05-08T19:25:16.583Z,98961.94
2023-05-08T19:27:43.141Z,98954.69
2023-05-08T19:30:10.479Z,98956.34
2023-05-08T19:32:37.677Z,98959.25
2023-05-08T19:35:04.755Z,98955.13
2023-05-08T19:37:31.405Z,98964.13
2023-05-08T19:39:58.160Z,98965.25
2023-05-08T19:42:25.016Z,98965.41
2023-05-08T19:44:51.788Z,98966.41
2023-05-08T19:47:18.564Z,98962.66
2023-05-08T19:49:45.101Z,98957.22
2023-05-08T19:52:11.755Z,98954.41
2023-05-08T19:54:38.408Z,98955.97
2023-05-08T19:57:05.222Z,98954.84
2023-05-08T19:59:31.952Z,98962.50
2023-05-08T20:01:58.783Z,98973.75
2023-05-08T20:04:25.564Z,98972.00
2023-05-08T20:06:52.120Z,98964.69
2023-05-08T20:09:18.968Z,98969.97
2023-05-08T20:11:46.577Z,98954.75
2023-05-08T20:14:13.649Z,98959.06
2023-05-08T20:16:40.503Z,98958.28
2023-05-08T20:19:07.370Z,98964.69
2023-05-08T20:21:34.171Z,98970.09
2023-05-08T20:24:01.148Z,98970.47
2023-05-08T20:26:29.244Z,98971.66
2023-05-08T20:28:57.110Z,98969.88
2023-05-08T20:31:25.842Z,98960.34
2023-05-08T20:33:52.622Z,98963.69
2023-05-08T20:36:19.505Z,98959.63
2023-05-08T20:38:46.263Z,98959.00
2023-05-08T20:41:12.937Z,98965.44
2023-05-08T20:43:40.402Z,98968.19
2023-05-08T20:46:07.201Z,98964.91
2023-05-08T20:48:33.919Z,98960.81
2023-05-08T20:51:00.619Z,98955.53
2023-05-08T20:53:27.270Z,98960.63
2023-05-08T20:56:04.340Z,98953.91
2023-05-08T20:58:31.125Z,98951.81
2023-05-08T21:00:57.981Z,98944.97
2023-05-08T21:03:24.713Z,98942.44
2023-05-08T21:05:51.740Z,98944.91
2023-05-08T21:08:22.100Z,98942.09
2023-05-08T21:10:49.931Z,98937.72
2023-05-08T21:13:16.677Z,98937.47
2023-05-08T21:15:43.348Z,98933.16
2023-05-08T21:18:11.893Z,98930.69
2023-05-08T21:20:38.694Z,98928.91
2023-05-08T21:23:05.428Z,98929.78
2023-05-08T21:25:32.098Z,98929.06
2023-05-08T21:27:58.750Z,98924.69
2023-05-08T21:30:25.399Z,98925.94
2023-05-08T21:32:52.173Z,98923.03
2023-05-08T21:35:19.042Z,98921.41
2023-05-08T21:37:45.630Z,98914.53
2023-05-08T21:40:12.501Z,98916.19
2023-05-08T21:42:39.508Z,98913.66
2023-05-08T21:45:06.475Z,98919.03
2023-05-08T21:47:32.980Z,98919.00
2023-05-08T21:49:59.533Z,98913.16
2023-05-08T21:52:26.564Z,98914.19
2023-05-08T21:54:53.278Z,98914.94
2023-05-08T21:57:20.195Z,98911.50
2023-05-08T21:59:47.282Z,98920.31
2023-05-08T22:02:13.921Z,98910.56
2023-05-08T22:04:40.616Z,98924.09
2023-05-08T22:07:07.129Z,98919.75
2023-05-08T22:09:34.260Z,98915.41
2023-05-08T22:12:00.945Z,98926.84
2023-05-08T22:14:27.642Z,98921.56
2023-05-08T22:16:54.342Z,98926.03
2023-05-08T22:19:20.903Z,98924.44
2023-05-08T22:21:47.531Z,98916.44
2023-05-08T22:24:15.228Z,98927.59
2023-05-08T22:26:41.928Z,98925.09
2023-05-08T22:29:08.482Z,98919.06
2023-05-08T22:31:35.283Z,98920.00
2023-05-08T22:34:02.867Z,98919.28
2023-05-08T22:36:29.418Z,98917.63
2023-05-08T22:38:56.399Z,98910.53
2023-05-08T22:41:23.850Z,98920.53
2023-05-08T22:43:50.623Z,98919.50
2023-05-08T22:46:17.789Z,98915.34
2023-05-08T22:48:44.793Z,98917.16
2023-05-08T22:51:11.554Z,98920.53
2023-05-08T22:53:38.157Z,98908.25
2023-05-08T22:56:05.013Z,98909.28
2023-05-08T22:58:31.636Z,98906.75
2023-05-08T23:00:59.753Z,98897.22
2023-05-08T23:03:26.513Z,98896.13
2023-05-08T23:05:53.174Z,98902.31
2023-05-08T23:08:20.095Z,98901.47
2023-05-08T23:10:46.692Z,98905.03
2023-05-08T23:13:13.327Z,98895.50
2023-05-08T23:15:40.092Z,98889.34
2023-05-08T23:18:06.754Z,98887.94
2023-05-08T23:20:33.333Z,98888.00
2023-05-08T23:23:00.166Z,98886.28
2023-05-08T23:25:26.880Z,98876.69
2023-05-08T23:27:53.471Z,98879.13
2023-05-08T23:30:20.198Z,98872.28
2023-05-08T23:32:46.922Z,98869.50
2023-05-08T23:35:13.692Z,98863.31
2023-05-08T23:37:40.421Z,98864.44
2023-05-08T23:40:07.603Z,98861.97
2023-05-08T23:42:34.132Z,98859.31
2023-05-08T23:45:00.609Z,98852.28
2023-05-08T23:47:27.308Z,98855.03
2023-05-08T23:49:53.961Z,98844.56
2023-05-08T23:52:20.810Z,98850.78
2023-05-08T23:54:47.367Z,98841.31
2023-05-08T23:57:14.032Z,98842.97
2023-05-08T23:59:40.608Z,98843.88
